Time;durP1;ratioP1;P1;durP2;ratioP2;P2;SDS_P1;SDS_P2;PMS_P1;PMS_P2;Temp;Humidity;BMP_temperature;BMP_pressure;BME280_temperature;BME280_humidity;BME280_pressure;Samples;Min_cycle;Max_cycle;Signal;HPM_P1;HPM_P2
2021/07/09 00:02:25;;;;;;;10.52;5.80;;;17.70;99.90;;;;;;4182226;28;20182;-86
2021/07/09 00:04:26;;;;;;;9.82;5.60;;;17.60;99.90;;;;;;4164434;28;20184;-87
2021/07/09 00:06:27;;;;;;;9.52;5.43;;;17.70;99.90;;;;;;4181083;28;20640;-87
2021/07/09 00:08:27;;;;;;;13.20;6.55;;;17.60;99.90;;;;;;4181003;28;20563;-87
2021/07/09 00:10:28;;;;;;;10.63;6.97;;;17.60;99.90;;;;;;4181093;28;20168;-87
2021/07/09 00:12:29;;;;;;;16.13;8.27;;;17.50;99.90;;;;;;4182311;28;20304;-87
2021/07/09 00:14:32;;;;;;;18.70;9.30;;;17.50;99.90;;;;;;4164456;28;20197;-86
2021/07/09 00:16:33;;;;;;;11.27;8.95;;;17.50;99.90;;;;;;4163687;28;20282;-87
2021/07/09 00:18:33;;;;;;;8.50;6.00;;;17.50;99.90;;;;;;4164366;28;20164;-86
2021/07/09 00:20:34;;;;;;;12.25;8.00;;;17.50;99.90;;;;;;4180993;28;20183;-86
2021/07/09 00:22:37;;;;;;;11.13;8.80;;;17.40;99.90;;;;;;4164333;28;20656;-86
2021/07/09 00:24:38;;;;;;;12.30;9.38;;;17.40;99.90;;;;;;4164087;28;20179;-87
2021/07/09 00:26:39;;;;;;;10.68;7.90;;;17.50;99.90;;;;;;4180877;28;20164;-86
2021/07/09 00:28:40;;;;;;;12.27;8.30;;;17.50;99.90;;;;;;4181003;28;20180;-86
2021/07/09 00:30:41;;;;;;;10.80;7.20;;;17.50;99.90;;;;;;4164482;28;20195;-87
2021/07/09 00:32:42;;;;;;;13.18;7.57;;;17.60;99.90;;;;;;4164442;28;20180;-86
2021/07/09 00:34:43;;;;;;;11.35;7.75;;;17.50;99.90;;;;;;4180624;28;20206;-87
2021/07/09 00:36:43;;;;;;;14.77;8.13;;;17.50;99.90;;;;;;4164150;28;20223;-87
2021/07/09 00:38:44;;;;;;;12.38;7.88;;;17.50;99.90;;;;;;4164000;28;20160;-86
2021/07/09 00:40:45;;;;;;;14.38;8.18;;;17.40;99.90;;;;;;4180445;28;20194;-86
2021/07/09 00:42:46;;;;;;;11.90;7.13;;;17.40;99.90;;;;;;4180673;28;20187;-87
2021/07/09 00:44:47;;;;;;;12.15;7.55;;;17.40;99.90;;;;;;4164094;28;20565;-86
2021/07/09 00:46:51;;;;;;;12.57;7.55;;;17.30;99.90;;;;;;4163946;28;20164;-86
2021/07/09 00:48:51;;;;;;;15.68;7.72;;;17.30;99.90;;;;;;4180560;28;20206;-86
2021/07/09 00:50:52;;;;;;;14.13;8.05;;;17.30;99.90;;;;;;4164148;28;20164;-86
2021/07/09 00:52:53;;;;;;;15.38;8.30;;;17.30;99.90;;;;;;4180625;28;20201;-86
2021/07/09 00:54:53;;;;;;;11.45;8.07;;;17.30;99.90;;;;;;4164327;28;20648;-86
2021/07/09 00:56:55;;;;;;;14.55;8.90;;;17.40;99.90;;;;;;4163980;28;20207;-87
2021/07/09 00:58:58;;;;;;;12.07;8.38;;;17.30;99.90;;;;;;4181554;28;20247;-90
2021/07/09 01:00:59;;;;;;;18.08;8.20;;;17.30;99.90;;;;;;4163958;28;20180;-87
2021/07/09 01:02:59;;;;;;;13.80;8.32;;;17.20;99.90;;;;;;4180489;28;20219;-85
2021/07/09 01:05:00;;;;;;;17.05;9.07;;;17.20;99.90;;;;;;4164121;28;20664;-86
2021/07/09 01:07:02;;;;;;;16.27;8.77;;;17.20;99.90;;;;;;4164159;28;20176;-86
2021/07/09 01:09:03;;;;;;;11.63;9.15;;;17.20;99.90;;;;;;4181803;28;20532;-87
2021/07/09 01:11:04;;;;;;;16.23;9.57;;;17.10;99.90;;;;;;4163949;28;20176;-87
2021/07/09 01:13:05;;;;;;;15.10;8.73;;;17.10;99.90;;;;;;4180289;28;20196;-86
2021/07/09 01:15:08;;;;;;;15.38;9.80;;;17.00;99.90;;;;;;4163975;28;20172;-86
2021/07/09 01:17:09;;;;;;;15.70;9.73;;;17.00;99.90;;;;;;4163753;28;20302;-86
2021/07/09 01:19:14;;;;;;;16.33;9.23;;;16.90;99.90;;;;;;4163886;28;20240;-86
2021/07/09 01:21:14;;;;;;;18.60;9.70;;;17.00;99.90;;;;;;4180524;28;20175;-86
2021/07/09 01:23:20;;;;;;;12.60;8.60;;;16.90;99.90;;;;;;4164058;28;20719;-87
2021/07/09 01:25:23;;;;;;;19.92;9.95;;;16.90;99.90;;;;;;4163826;28;20238;-87
2021/07/09 01:27:24;;;;;;;13.80;9.50;;;16.90;99.90;;;;;;4180027;28;20210;-86
2021/07/09 01:29:25;;;;;;;17.60;10.05;;;16.80;99.90;;;;;;4182977;28;20192;-86
2021/07/09 01:31:25;;;;;;;17.00;9.90;;;16.80;99.90;;;;;;4166873;28;20172;-86
2021/07/09 01:33:27;;;;;;;16.15;9.77;;;16.70;99.90;;;;;;4166580;28;20241;-86
2021/07/09 01:35:29;;;;;;;20.02;10.57;;;16.70;99.90;;;;;;4199672;28;20170;-86
2021/07/09 01:37:29;;;;;;;22.35;9.48;;;16.70;99.90;;;;;;4183201;28;20378;-86
2021/07/09 01:39:30;;;;;;;17.25;9.90;;;16.70;99.90;;;;;;4166379;28;20172;-86
2021/07/09 01:41:31;;;;;;;21.58;9.85;;;16.70;99.90;;;;;;4166645;28;20179;-86
2021/07/09 01:43:32;;;;;;;17.10;9.52;;;16.70;99.90;;;;;;4166696;28;20196;-86
2021/07/09 01:45:34;;;;;;;25.50;9.25;;;16.70;99.90;;;;;;4166687;28;20580;-86
2021/07/09 01:47:34;;;;;;;16.65;9.70;;;16.70;99.90;;;;;;4183032;28;20167;-87
2021/07/09 01:49:49;;;;;;;13.90;9.40;;;16.80;99.90;;;;;;4166225;28;20250;-86
2021/07/09 01:51:49;;;;;;;18.48;9.50;;;16.90;99.90;;;;;;4166375;28;20180;-86
2021/07/09 01:53:50;;;;;;;16.73;9.00;;;16.90;99.90;;;;;;4183059;28;20197;-86
2021/07/09 01:55:51;;;;;;;14.15;9.15;;;16.90;99.90;;;;;;4166617;28;20517;-86
2021/07/09 01:57:52;;;;;;;21.80;9.23;;;16.90;99.90;;;;;;4166596;28;20187;-87
2021/07/09 01:59:54;;;;;;;14.20;8.45;;;17.00;99.90;;;;;;4183323;28;20164;-86
2021/07/09 02:01:54;;;;;;;19.40;8.93;;;17.10;99.90;;;;;;4166527;28;20271;-86
2021/07/09 02:03:55;;;;;;;15.43;8.98;;;17.10;99.90;;;;;;4182780;28;20208;-87
2021/07/09 02:05:56;;;;;;;14.63;8.75;;;17.20;99.90;;;;;;4166333;28;20173;-85
2021/07/09 02:07:57;;;;;;;17.23;8.68;;;17.20;99.90;;;;;;4182892;28;20168;-86
2021/07/09 02:09:58;;;;;;;16.40;8.70;;;17.20;99.90;;;;;;4183842;28;20164;-86
2021/07/09 02:11:59;;;;;;;17.65;8.95;;;17.10;99.90;;;;;;4166078;28;20177;-86
2021/07/09 02:14:00;;;;;;;13.40;8.60;;;17.20;99.90;;;;;;4165976;28;20193;-87
2021/07/09 02:16:01;;;;;;;15.50;9.88;;;17.20;99.90;;;;;;4165810;28;20172;-86
2021/07/09 02:18:03;;;;;;;19.65;9.15;;;17.20;99.90;;;;;;4166027;28;20192;-86
2021/07/09 06:21:23;;;;;;;21.10;12.60;;;18.20;99.90;;;;;;4052145;29;20246;-93
2021/07/09 06:29:17;;;;;;;18.23;11.52;;;19.00;99.90;;;;;;4023089;29;20344;-95
2021/07/09 06:35:10;;;;;;;17.98;10.68;;;19.40;99.90;;;;;;3998344;29;20191;-93
2021/07/09 06:37:16;;;;;;;18.30;10.50;;;19.60;99.90;;;;;;3993633;29;20700;-94
2021/07/09 06:56:20;;;;;;;16.48;9.90;;;19.00;99.90;;;;;;4038159;29;20202;-94
2021/07/09 06:58:42;;;;;;;21.70;9.63;;;18.90;99.90;;;;;;4038815;29;20186;-94
2021/07/09 07:06:44;;;;;;;14.02;9.10;;;18.80;99.90;;;;;;4034434;29;20189;-94
2021/07/09 07:09:59;;;;;;;16.27;8.52;;;18.80;99.90;;;;;;4038537;29;20186;-95
2021/07/09 07:31:22;;;;;;;11.85;6.90;;;21.00;99.90;;;;;;4009139;29;20736;-89
2021/07/09 07:41:19;;;;;;;11.30;6.35;;;23.90;99.90;;;;;;4242703;23;20233;-91
2021/07/09 07:46:51;;;;;;;12.25;7.40;;;24.00;99.90;;;;;;4023121;29;20200;-90
2021/07/09 07:55:48;;;;;;;9.15;5.90;;;22.80;99.90;;;;;;4023279;29;20254;-92
2021/07/09 08:15:46;;;;;;;9.68;5.65;;;22.70;99.90;;;;;;3874608;30;20207;-93
2021/07/09 09:21:27;;;;;;;16.95;9.73;;;21.50;99.90;;;;;;4061212;29;20748;-94
2021/07/09 09:23:35;;;;;;;13.32;8.07;;;21.30;99.90;;;;;;4029694;29;20373;-92
2021/07/09 09:26:28;;;;;;;;;;;;;;;;;;;;;
2021/07/09 09:31:27;;;;;;;;;;;;;;;;;;;;;
2021/07/09 09:58:31;;;;;;;23.90;12.02;;;21.10;99.90;;;;;;4040824;23;20245;-93
2021/07/09 10:09:35;;;;;;;20.50;13.75;;;21.10;99.90;;;;;;3995625;29;20673;-93
2021/07/09 10:11:37;;;;;;;17.35;12.75;;;21.00;99.90;;;;;;3995674;29;20191;-93
2021/07/09 10:17:08;;;;;;;21.08;12.57;;;20.70;99.90;;;;;;4011884;29;20194;-95
2021/07/09 10:24:01;;;;;;;14.80;10.65;;;21.10;99.90;;;;;;4027298;29;20221;-93
2021/07/09 10:30:05;;;;;;;;;;;;;;;;;;;;;
2021/07/09 10:40:00;;;;;;;;;;;;;;;;;;;;;
2021/07/09 10:42:39;;;;;;;21.60;11.50;;;21.80;99.90;;;;;;3964678;29;20204;-94
2021/07/09 10:45:31;;;;;;;;;;;;;;;;;;;;;
2021/07/09 10:47:54;;;;;;;14.52;9.93;;;22.00;99.90;;;;;;3978845;29;20296;-96
2021/07/09 10:57:45;;;;;;;13.80;8.45;;;22.00;99.90;;;;;;3994809;29;20360;-92
2021/07/09 11:06:54;;;;;;;11.88;7.20;;;22.40;99.90;;;;;;4008808;29;20652;-93
2021/07/09 11:15:24;;;;;;;12.27;6.03;;;22.80;99.90;;;;;;4340774;23;20245;-94
2021/07/09 11:18:24;;;;;;;13.20;6.28;;;22.80;99.90;;;;;;4009805;29;20337;-91
2021/07/09 11:20:51;;;;;;;8.70;5.75;;;22.40;99.90;;;;;;4004884;29;20194;-93
2021/07/09 11:27:02;;;;;;;9.00;6.25;;;22.50;99.90;;;;;;4038367;29;20185;-92
2021/07/09 11:35:56;;;;;;;;;;;;;;;;;;;;;
2021/07/09 11:40:21;;;;;;;;;;;;;;;;;;;;;
2021/07/09 11:42:26;;;;;;;12.60;6.15;;;23.20;99.90;;;;;;4023194;29;20220;-94
2021/07/09 11:44:43;;;;;;;12.65;6.45;;;23.60;99.90;;;;;;4007704;29;20225;-94
2021/07/09 11:47:00;;;;;;;12.32;6.78;;;23.70;99.90;;;;;;4023333;29;20186;-93
2021/07/09 11:49:07;;;;;;;11.43;6.50;;;23.50;99.90;;;;;;4023385;29;20269;-93
2021/07/09 11:52:11;;;;;;;;;;;;;;;;;;;;;
2021/07/09 11:55:05;;;;;;;11.13;6.50;;;23.60;99.90;;;;;;4023297;29;20565;-93
2021/07/09 11:57:50;;;;;;;;;;;;;;;;;;;;;
2021/07/09 12:04:33;;;;;;;;;;;;;;;;;;;;;
2021/07/09 12:07:36;;;;;;;17.52;8.18;;;23.60;99.90;;;;;;3991512;29;20680;-95
2021/07/09 12:15:44;;;;;;;11.27;7.43;;;24.30;99.90;;;;;;4127476;23;20233;-91
2021/07/09 12:18:17;;;;;;;10.10;7.50;;;24.50;99.90;;;;;;4007547;29;20218;-93
2021/07/09 12:20:59;;;;;;;12.13;8.00;;;24.30;99.90;;;;;;4022112;29;20213;-92
2021/07/09 12:26:16;;;;;;;12.95;8.00;;;24.30;99.90;;;;;;4024448;29;20194;-93
2021/07/09 12:31:45;;;;;;;11.88;7.75;;;23.70;99.90;;;;;;4025234;29;20213;-93
2021/07/09 12:34:20;;;;;;;13.60;8.07;;;23.90;99.90;;;;;;4007874;29;20218;-91
2021/07/09 12:36:30;;;;;;;12.18;8.88;;;23.50;99.90;;;;;;4021785;29;20557;-93
2021/07/09 12:38:43;;;;;;;13.02;8.35;;;23.70;99.90;;;;;;4006810;29;20212;-92
2021/07/09 12:45:06;;;;;;;13.10;8.95;;;24.70;99.90;;;;;;4036602;29;20338;-93
2021/07/09 12:47:20;;;;;;;;;;;;;;;;;;;;;
2021/07/09 12:50:36;;;;;;;11.23;7.40;;;24.70;99.90;;;;;;4035706;29;20189;-92
2021/07/09 12:53:12;;;;;;;13.27;7.03;;;24.40;99.90;;;;;;4000802;29;20190;-92
2021/07/09 12:55:53;;;;;;;;;;;;;;;;;;;;;
2021/07/09 12:59:10;;;;;;;;;;;;;;;;;;;;;
2021/07/09 13:01:54;;;;;;;8.50;4.80;;;24.60;99.90;;;;;;4021907;29;20174;-91
2021/07/09 13:04:25;;;;;;;8.00;5.13;;;24.70;99.90;;;;;;4021271;29;20678;-93
2021/07/09 13:09:43;;;;;;;;;;;;;;;;;;;;;
2021/07/09 13:11:53;;;;;;;11.63;5.22;;;25.00;99.90;;;;;;4037362;29;20173;-92
2021/07/09 13:14:32;;;;;;;8.48;5.07;;;24.90;99.90;;;;;;4021875;29;20206;-93
2021/07/09 13:16:59;;;;;;;8.10;4.75;;;24.40;99.90;;;;;;4023952;29;20225;-93
2021/07/09 13:19:04;;;;;;;8.25;4.60;;;24.60;99.90;;;;;;4009762;29;20190;-91
2021/07/09 13:21:26;;;;;;;9.13;5.72;;;24.10;99.90;;;;;;4006465;29;20225;-93
2021/07/09 13:24:02;;;;;;;8.90;4.38;;;24.30;99.90;;;;;;4006000;29;20703;-92
2021/07/09 13:26:24;;;;;;;;;;;;;;;;;;;;;
2021/07/09 13:34:42;;;;;;;7.28;4.63;;;25.70;99.90;;;;;;4023945;29;20223;-91
2021/07/09 13:37:13;;;;;;;11.20;5.90;;;25.70;99.90;;;;;;4025082;29;20241;-93
2021/07/09 13:42:15;;;;;;;9.18;4.93;;;25.30;99.90;;;;;;4026887;29;20181;-94
2021/07/09 13:44:24;;;;;;;10.63;4.47;;;24.90;99.90;;;;;;4010230;29;20198;-92
2021/07/09 13:46:52;;;;;;;12.80;4.63;;;24.60;99.90;;;;;;4011643;29;20178;-92
2021/07/09 13:48:55;;;;;;;11.25;5.47;;;24.50;99.90;;;;;;4009394;29;20187;-92
2021/07/09 13:51:03;;;;;;;7.75;4.20;;;24.40;99.90;;;;;;4009668;29;20560;-93
2021/07/09 13:53:07;;;;;;;7.20;4.00;;;24.30;99.90;;;;;;4010398;29;20285;-92
2021/07/09 13:55:10;;;;;;;6.68;4.25;;;24.20;99.90;;;;;;4012964;29;20186;-91
2021/07/09 13:57:11;;;;;;;8.93;4.32;;;24.40;99.90;;;;;;4012131;29;20633;-90
2021/07/09 13:59:17;;;;;;;6.90;3.53;;;24.50;99.90;;;;;;4011072;29;20191;-92
2021/07/09 14:01:26;;;;;;;8.15;4.20;;;24.80;99.90;;;;;;4025668;29;20178;-92
2021/07/09 14:03:27;;;;;;;8.40;4.55;;;25.20;99.90;;;;;;4012065;29;20199;-91
2021/07/09 14:05:37;;;;;;;9.80;5.00;;;25.10;99.90;;;;;;4011368;29;20181;-92
2021/07/09 14:07:44;;;;;;;6.85;3.63;;;24.90;99.90;;;;;;4012920;29;20671;-94
2021/07/09 14:10:14;;;;;;;5.90;3.85;;;25.20;99.90;;;;;;4028407;29;20237;-93
2021/07/09 14:12:42;;;;;;;7.65;4.07;;;25.40;99.90;;;;;;4026753;29;20197;-94
2021/07/09 14:14:45;;;;;;;6.88;4.05;;;25.10;99.90;;;;;;4010628;29;20178;-91
2021/07/09 14:16:49;;;;;;;8.80;4.03;;;24.80;99.90;;;;;;4009576;29;20258;-92
2021/07/09 14:19:10;;;;;;;;;;;;;;;;;;;;;
2021/07/09 14:21:28;;;;;;;7.43;4.13;;;24.90;99.90;;;;;;4042633;29;20747;-92
2021/07/09 14:23:29;;;;;;;6.70;3.75;;;24.50;99.90;;;;;;4030959;23;20245;-84
2021/07/09 14:25:30;;;;;;;5.82;4.10;;;24.50;99.90;;;;;;4023310;29;20185;-85
2021/07/09 14:27:31;;;;;;;8.88;4.05;;;24.50;99.90;;;;;;4023277;29;20179;-84
2021/07/09 14:29:32;;;;;;;8.95;4.07;;;24.70;99.90;;;;;;4053970;29;20182;-84
2021/07/09 14:31:32;;;;;;;6.03;3.10;;;24.80;99.90;;;;;;4022651;29;20210;-84
2021/07/09 14:33:33;;;;;;;6.95;3.38;;;24.90;99.90;;;;;;4022936;29;20258;-85
2021/07/09 14:35:35;;;;;;;5.68;3.70;;;24.90;99.90;;;;;;4006533;29;20585;-84
2021/07/09 14:37:36;;;;;;;10.07;4.28;;;24.90;99.90;;;;;;4022959;29;20572;-85
2021/07/09 14:39:36;;;;;;;4.78;2.95;;;25.10;99.90;;;;;;4007785;29;20208;-84
2021/07/09 14:41:37;;;;;;;7.78;3.28;;;24.70;99.90;;;;;;4022904;29;20246;-90
2021/07/09 14:43:38;;;;;;;7.07;4.00;;;24.50;99.90;;;;;;4007313;29;20191;-84
2021/07/09 14:45:39;;;;;;;6.55;3.92;;;24.80;99.90;;;;;;4022639;29;20273;-84
2021/07/09 14:47:40;;;;;;;10.80;4.03;;;25.10;99.90;;;;;;4022842;29;20717;-84
2021/07/09 14:49:41;;;;;;;6.65;3.67;;;25.20;99.90;;;;;;4022633;29;20262;-84
2021/07/09 14:51:42;;;;;;;6.05;3.97;;;25.10;99.90;;;;;;4037967;29;20671;-84
2021/07/09 14:53:42;;;;;;;5.05;4.00;;;25.40;99.90;;;;;;4007357;29;20213;-84
2021/07/09 14:55:44;;;;;;;7.28;3.65;;;25.30;99.90;;;;;;4007655;29;20186;-84
2021/07/09 14:57:45;;;;;;;7.03;4.22;;;25.20;99.90;;;;;;4038061;29;20253;-84
2021/07/09 14:59:46;;;;;;;6.15;3.90;;;25.00;99.90;;;;;;4038206;29;20710;-85
2021/07/09 15:01:46;;;;;;;9.82;4.07;;;25.20;99.90;;;;;;4007326;29;20190;-84
2021/07/09 15:03:47;;;;;;;7.13;3.75;;;25.10;99.90;;;;;;4007129;29;20195;-88
2021/07/09 15:05:48;;;;;;;8.35;3.72;;;25.10;99.90;;;;;;4037973;29;20200;-84
2021/07/09 15:07:50;;;;;;;7.97;4.00;;;25.10;99.90;;;;;;4023733;29;20169;-85
2021/07/09 15:09:50;;;;;;;6.38;3.60;;;24.80;99.90;;;;;;4022625;29;20205;-84
2021/07/09 15:11:51;;;;;;;5.75;3.70;;;24.60;99.90;;;;;;4022691;29;20654;-84
2021/07/09 15:13:52;;;;;;;9.93;3.97;;;24.50;99.90;;;;;;4022306;29;20651;-88
2021/07/09 15:15:52;;;;;;;8.77;3.80;;;24.50;99.90;;;;;;4022154;29;20170;-84
2021/07/09 15:17:53;;;;;;;6.57;3.67;;;24.40;99.90;;;;;;4021970;29;20221;-90
2021/07/09 15:19:54;;;;;;;4.95;3.75;;;24.50;99.90;;;;;;4022081;29;20603;-84
2021/07/09 15:21:54;;;;;;;7.03;3.67;;;24.60;99.90;;;;;;4022342;29;20290;-84
2021/07/09 15:23:55;;;;;;;5.20;3.55;;;24.90;99.90;;;;;;4022060;29;20241;-84
2021/07/09 15:25:56;;;;;;;8.15;3.83;;;25.30;99.90;;;;;;4022137;29;20202;-84
2021/07/09 15:27:56;;;;;;;4.97;3.45;;;25.30;99.90;;;;;;4022221;29;20178;-85
2021/07/09 15:29:57;;;;;;;6.07;3.58;;;25.30;99.90;;;;;;4022344;29;20562;-84
2021/07/09 15:31:58;;;;;;;5.55;3.45;;;25.50;99.90;;;;;;4022202;29;20273;-84
2021/07/09 15:33:59;;;;;;;4.30;2.97;;;25.80;99.90;;;;;;4022072;29;20269;-85
2021/07/09 15:35:59;;;;;;;4.28;2.97;;;25.80;99.90;;;;;;4037338;29;20180;-84
2021/07/09 15:38:00;;;;;;;10.50;3.20;;;25.70;99.90;;;;;;4023264;29;20683;-84
2021/07/09 15:40:03;;;;;;;4.85;3.15;;;25.90;99.90;;;;;;4037166;29;20178;-84
2021/07/09 15:42:04;;;;;;;8.82;3.20;;;25.90;99.90;;;;;;4022172;29;20226;-85
2021/07/09 15:44:07;;;;;;;5.88;2.75;;;25.80;99.90;;;;;;4006709;29;20651;-84
2021/07/09 15:46:08;;;;;;;7.18;3.60;;;25.90;99.90;;;;;;4022099;29;20694;-88
2021/07/09 15:48:09;;;;;;;9.70;4.10;;;26.10;99.90;;;;;;4021513;29;20262;-85
2021/07/09 15:50:10;;;;;;;9.10;3.67;;;26.10;99.90;;;;;;4036964;29;20186;-87
2021/07/09 15:52:10;;;;;;;6.82;3.40;;;26.10;99.90;;;;;;4022457;29;20205;-85
2021/07/09 15:54:11;;;;;;;8.63;3.15;;;26.10;99.90;;;;;;4037285;29;20209;-84
2021/07/09 15:56:12;;;;;;;5.60;3.53;;;26.20;99.90;;;;;;4021680;29;20184;-85
2021/07/09 15:58:13;;;;;;;5.80;3.97;;;26.10;99.90;;;;;;4021865;29;20640;-84
2021/07/09 16:00:13;;;;;;;5.90;3.20;;;26.30;99.90;;;;;;4022873;29;20663;-84
2021/07/09 16:02:15;;;;;;;6.65;3.58;;;26.00;99.90;;;;;;4037043;29;20185;-84
2021/07/09 16:04:15;;;;;;;7.55;3.67;;;25.60;99.90;;;;;;4036775;29;20201;-84
2021/07/09 16:06:16;;;;;;;5.22;3.28;;;25.40;99.90;;;;;;4021536;29;20185;-89
2021/07/09 16:08:17;;;;;;;5.40;3.45;;;25.00;99.90;;;;;;4021725;29;20217;-84
2021/07/09 16:10:18;;;;;;;8.00;3.35;;;24.90;99.90;;;;;;4037434;29;20174;-84
2021/07/09 16:12:18;;;;;;;5.45;3.70;;;24.80;99.90;;;;;;4006729;29;20270;-85
2021/07/09 16:14:19;;;;;;;7.35;3.42;;;24.80;99.90;;;;;;4022767;29;20194;-84
2021/07/09 16:16:20;;;;;;;7.32;3.50;;;24.70;99.90;;;;;;4022738;29;20183;-91
2021/07/09 16:18:21;;;;;;;5.60;3.42;;;24.70;99.90;;;;;;4021558;29;20222;-84
2021/07/09 16:20:22;;;;;;;8.48;3.72;;;24.90;99.90;;;;;;4021703;29;20635;-84
2021/07/09 16:22:22;;;;;;;6.85;3.53;;;24.90;99.90;;;;;;4021596;29;20652;-84
2021/07/09 16:24:23;;;;;;;7.82;3.50;;;24.90;99.90;;;;;;4021389;29;20265;-84
2021/07/09 16:26:24;;;;;;;6.15;3.45;;;25.00;99.90;;;;;;4021477;29;20190;-84
2021/07/09 16:28:25;;;;;;;5.07;3.45;;;25.10;99.90;;;;;;4021483;29;20273;-84
2021/07/09 16:30:26;;;;;;;8.15;3.70;;;25.00;99.90;;;;;;4021529;29;20243;-83
2021/07/09 16:32:26;;;;;;;5.07;3.28;;;25.00;99.90;;;;;;4021455;29;20178;-83
2021/07/09 16:34:27;;;;;;;11.65;3.50;;;25.00;99.90;;;;;;4021356;29;20190;-84
2021/07/09 16:36:28;;;;;;;6.80;3.25;;;25.00;99.90;;;;;;4006012;29;20183;-83
2021/07/09 16:38:29;;;;;;;5.20;3.60;;;24.80;99.90;;;;;;4021238;29;20282;-83
2021/07/09 16:40:31;;;;;;;5.20;3.28;;;24.90;99.90;;;;;;4021234;29;20170;-83
2021/07/09 16:42:34;;;;;;;8.75;3.42;;;25.00;99.90;;;;;;4006159;29;20190;-84
2021/07/09 16:44:34;;;;;;;4.35;3.20;;;25.30;99.90;;;;;;4005896;29;20179;-84
2021/07/09 16:46:35;;;;;;;7.35;3.08;;;25.30;99.90;;;;;;4021305;29;20293;-85
2021/07/09 16:48:36;;;;;;;7.43;3.53;;;25.50;99.90;;;;;;4021019;29;20659;-83
2021/07/09 16:50:36;;;;;;;6.05;3.60;;;25.40;99.90;;;;;;4021278;29;20526;-83
2021/07/09 16:52:37;;;;;;;7.32;3.60;;;25.20;99.90;;;;;;4021127;29;20181;-83
2021/07/09 16:54:39;;;;;;;7.32;3.80;;;25.30;99.90;;;;;;4021356;29;20589;-84
2021/07/09 16:56:39;;;;;;;7.15;3.13;;;25.40;99.90;;;;;;4021403;29;20269;-84
2021/07/09 16:58:40;;;;;;;7.20;4.22;;;25.50;99.90;;;;;;4021578;29;20190;-84
2021/07/09 17:00:41;;;;;;;5.68;3.80;;;25.20;99.90;;;;;;4024292;29;20620;-84
2021/07/09 17:02:42;;;;;;;6.80;3.70;;;24.70;99.90;;;;;;4024220;29;20174;-84
2021/07/09 17:04:43;;;;;;;10.10;3.58;;;24.60;99.90;;;;;;4024523;29;20174;-86
2021/07/09 17:06:44;;;;;;;7.70;3.70;;;24.10;99.90;;;;;;4040103;29;20192;-84
2021/07/09 17:08:44;;;;;;;10.02;3.30;;;23.70;99.90;;;;;;4009209;29;20183;-84
2021/07/09 17:10:45;;;;;;;7.55;3.55;;;23.70;99.90;;;;;;4009446;29;20291;-87
2021/07/09 17:12:46;;;;;;;6.85;3.00;;;23.70;99.90;;;;;;4025486;29;20177;-84
2021/07/09 17:14:47;;;;;;;5.38;3.30;;;23.80;99.90;;;;;;4024404;29;20248;-85
2021/07/09 17:16:47;;;;;;;5.90;3.40;;;23.90;99.90;;;;;;4024345;29;20555;-85
2021/07/09 17:18:48;;;;;;;7.15;3.40;;;23.80;99.90;;;;;;4009195;29;20186;-84
2021/07/09 17:20:49;;;;;;;6.25;3.25;;;24.00;99.90;;;;;;4024513;29;20171;-88
2021/07/09 17:22:50;;;;;;;5.25;3.00;;;24.20;99.90;;;;;;4008892;29;20636;-84
2021/07/09 17:24:50;;;;;;;6.25;3.35;;;24.30;99.90;;;;;;4024357;29;20167;-86
2021/07/09 17:26:51;;;;;;;5.28;3.13;;;24.20;99.90;;;;;;4009039;29;20178;-87
2021/07/09 17:28:52;;;;;;;7.82;3.42;;;24.30;99.90;;;;;;4039468;29;20635;-84
2021/07/09 17:30:53;;;;;;;8.70;3.38;;;24.30;99.90;;;;;;4008968;29;20190;-88
2021/07/09 17:32:53;;;;;;;6.65;3.15;;;24.30;99.90;;;;;;4024160;29;20263;-84
2021/07/09 17:34:54;;;;;;;6.43;3.35;;;24.30;99.90;;;;;;4024196;29;20177;-88
2021/07/09 17:36:55;;;;;;;9.35;2.97;;;24.30;99.90;;;;;;4024054;29;20209;-86
2021/07/09 17:38:56;;;;;;;8.77;3.13;;;24.20;99.90;;;;;;4023969;29;20265;-84
2021/07/09 17:40:56;;;;;;;6.07;3.72;;;24.20;99.90;;;;;;4023929;29;20174;-85
2021/07/09 17:42:57;;;;;;;6.60;3.08;;;23.90;99.90;;;;;;4024011;29;20591;-87
2021/07/09 17:44:58;;;;;;;5.60;3.58;;;23.90;99.90;;;;;;4039271;29;20177;-84
2021/07/09 17:46:59;;;;;;;10.75;3.45;;;23.90;99.90;;;;;;4008692;29;20190;-85
2021/07/09 17:49:00;;;;;;;5.97;3.15;;;23.70;99.90;;;;;;4023898;29;20174;-85
2021/07/09 17:51:02;;;;;;;6.80;3.30;;;23.60;99.90;;;;;;4023659;29;20185;-85
2021/07/09 17:53:03;;;;;;;5.47;3.42;;;23.60;99.90;;;;;;4038793;29;20683;-88
2021/07/09 17:55:04;;;;;;;7.28;3.45;;;23.70;99.90;;;;;;4008587;29;20227;-84
2021/07/09 17:57:07;;;;;;;5.45;3.13;;;23.70;99.90;;;;;;4023785;29;20293;-85
2021/07/09 17:59:07;;;;;;;6.80;3.30;;;23.70;99.90;;;;;;4023775;29;20303;-85
2021/07/09 18:01:08;;;;;;;8.25;3.53;;;23.80;99.90;;;;;;4038776;29;20170;-84
2021/07/09 18:03:09;;;;;;;5.85;3.20;;;23.80;99.90;;;;;;4008142;29;20560;-85
2021/07/09 18:05:10;;;;;;;6.07;3.42;;;23.80;99.90;;;;;;4023548;29;20175;-85
2021/07/09 18:07:11;;;;;;;5.07;3.10;;;23.90;99.90;;;;;;4023618;29;20178;-84
2021/07/09 18:09:12;;;;;;;8.43;3.75;;;23.90;99.90;;;;;;4023802;29;20174;-84
2021/07/09 18:11:13;;;;;;;6.30;3.17;;;23.90;99.90;;;;;;4022868;29;20185;-85
2021/07/09 18:13:13;;;;;;;8.73;3.10;;;23.80;99.90;;;;;;4023235;29;20198;-84
2021/07/09 18:15:15;;;;;;;6.30;3.50;;;23.80;99.90;;;;;;4023570;29;20181;-83
2021/07/09 18:17:16;;;;;;;8.20;3.45;;;23.90;99.90;;;;;;4024661;29;20212;-84
2021/07/09 18:19:17;;;;;;;8.73;3.38;;;23.90;99.90;;;;;;4023196;29;20248;-84
2021/07/09 18:21:19;;;;;;;8.30;3.42;;;23.80;99.90;;;;;;4023563;29;20648;-84
2021/07/09 18:23:23;;;;;;;9.88;3.78;;;23.70;99.90;;;;;;4023282;29;20214;-85
2021/07/09 18:25:25;;;;;;;6.32;3.30;;;23.60;99.90;;;;;;4023337;29;20581;-84
2021/07/09 18:27:26;;;;;;;9.93;3.85;;;23.50;99.90;;;;;;4023321;29;20651;-85
2021/07/09 18:29:26;;;;;;;8.60;3.55;;;23.40;99.90;;;;;;4038598;29;20177;-88
2021/07/09 18:31:27;;;;;;;8.00;3.80;;;23.10;99.90;;;;;;4023000;29;20186;-84
2021/07/09 18:33:28;;;;;;;7.88;3.35;;;23.10;99.90;;;;;;4023017;29;20620;-84
2021/07/09 18:35:29;;;;;;;8.50;3.63;;;23.00;99.90;;;;;;4023082;29;20211;-84
2021/07/09 18:37:30;;;;;;;8.88;4.15;;;22.90;99.90;;;;;;4023224;29;20206;-84
2021/07/09 18:39:31;;;;;;;7.70;3.78;;;22.80;99.90;;;;;;4023263;29;20207;-85
2021/07/09 18:41:32;;;;;;;10.10;3.70;;;22.60;99.90;;;;;;4023232;29;20181;-88
2021/07/09 18:43:33;;;;;;;9.70;4.15;;;22.40;99.90;;;;;;4023119;29;20199;-84
2021/07/09 18:45:35;;;;;;;6.85;3.72;;;22.20;99.90;;;;;;4023052;29;20262;-84
2021/07/09 18:47:36;;;;;;;8.35;4.50;;;21.90;99.90;;;;;;4022898;29;20174;-84
2021/07/09 18:49:37;;;;;;;8.48;3.85;;;22.00;99.90;;;;;;4022887;29;20182;-83
2021/07/09 18:51:37;;;;;;;11.60;4.85;;;22.00;99.90;;;;;;4007555;29;20299;-87
2021/07/09 18:53:39;;;;;;;8.10;4.75;;;21.80;99.90;;;;;;4007761;29;20251;-84
2021/07/09 18:55:40;;;;;;;9.95;4.72;;;21.60;99.90;;;;;;4024115;29;20184;-84
2021/07/09 18:57:41;;;;;;;9.07;5.60;;;21.50;99.90;;;;;;4022658;29;20238;-84
2021/07/09 18:59:42;;;;;;;14.50;6.13;;;21.40;99.90;;;;;;4007692;29;20227;-84
2021/07/09 19:01:44;;;;;;;7.70;5.05;;;21.40;99.90;;;;;;4022468;29;20560;-83
2021/07/09 19:03:45;;;;;;;10.73;5.53;;;21.40;99.90;;;;;;4037811;29;20194;-84
2021/07/09 19:05:50;;;;;;;11.13;5.90;;;21.20;99.90;;;;;;4022611;29;20230;-84
2021/07/09 19:07:50;;;;;;;10.20;5.55;;;21.10;99.90;;;;;;4007122;29;20179;-83
2021/07/09 19:09:51;;;;;;;9.40;5.85;;;21.20;99.90;;;;;;4037907;29;20184;-84
2021/07/09 19:11:52;;;;;;;9.48;5.70;;;21.10;99.90;;;;;;4007251;29;20186;-84
2021/07/09 19:13:53;;;;;;;13.10;6.45;;;20.90;99.90;;;;;;4007088;29;20282;-84
2021/07/09 19:15:53;;;;;;;15.90;6.68;;;20.80;99.90;;;;;;4022361;29;20178;-85
2021/07/09 19:17:57;;;;;;;13.00;7.03;;;20.90;99.90;;;;;;4007112;29;20304;-84
2021/07/09 19:19:58;;;;;;;12.32;6.75;;;21.10;99.90;;;;;;4022542;29;20555;-85
2021/07/09 19:21:58;;;;;;;9.32;6.75;;;21.20;99.90;;;;;;4006588;29;20251;-85
2021/07/09 19:23:59;;;;;;;10.80;6.75;;;21.10;99.90;;;;;;4022160;29;20309;-85
2021/07/09 19:26:00;;;;;;;13.45;6.50;;;21.00;99.90;;;;;;4022185;29;20182;-84
2021/07/09 19:28:02;;;;;;;11.07;7.13;;;21.00;99.90;;;;;;4022113;29;20307;-84
2021/07/09 19:30:08;;;;;;;14.45;7.82;;;21.20;99.90;;;;;;4037572;29;20173;-84
2021/07/09 19:32:09;;;;;;;11.80;6.57;;;21.30;99.90;;;;;;4022376;29;20182;-84
2021/07/09 19:34:10;;;;;;;11.73;7.07;;;21.30;99.90;;;;;;4022107;29;20293;-91
2021/07/09 19:36:11;;;;;;;14.68;7.68;;;21.00;99.90;;;;;;4023276;29;20652;-84
2021/07/09 19:38:13;;;;;;;13.80;7.22;;;20.80;99.90;;;;;;4022193;29;20297;-84
2021/07/09 19:40:19;;;;;;;10.32;6.35;;;20.80;99.90;;;;;;4037209;29;20206;-84
2021/07/09 19:42:20;;;;;;;19.77;8.70;;;20.70;99.90;;;;;;4037397;29;20662;-85
2021/07/09 19:44:20;;;;;;;15.30;7.88;;;20.80;99.90;;;;;;4023068;29;20229;-84
2021/07/09 19:46:21;;;;;;;14.32;7.47;;;20.90;99.90;;;;;;4022100;29;20178;-85